createdAt,value
2019-03-26T00:00:46.230Z,3.90
2019-03-26T00:03:31.054Z,3.90
2019-03-26T00:06:16.426Z,3.80
2019-03-26T00:09:01.678Z,3.70
2019-03-26T00:11:46.543Z,3.70
2019-03-26T00:14:31.806Z,3.60
2019-03-26T00:17:16.994Z,3.60
2019-03-26T00:20:02.143Z,3.70
2019-03-26T00:22:47.222Z,3.60
2019-03-26T00:25:32.759Z,3.60
2019-03-26T00:28:17.671Z,3.70
2019-03-26T00:31:02.810Z,3.60
2019-03-26T00:33:48.343Z,3.60
2019-03-26T00:36:33.439Z,3.60
2019-03-26T00:39:18.776Z,3.60
2019-03-26T00:42:03.975Z,3.60
2019-03-26T00:44:49.394Z,3.60
2019-03-26T00:47:34.817Z,3.60
2019-03-26T00:50:20.118Z,3.60
2019-03-26T00:53:05.356Z,3.60
2019-03-26T00:55:50.240Z,3.50
2019-03-26T00:58:35.393Z,3.50
2019-03-26T01:01:20.420Z,3.50
2019-03-26T01:04:05.939Z,3.40
2019-03-26T01:06:51.570Z,3.40
2019-03-26T01:09:36.924Z,3.30
2019-03-26T01:12:22.271Z,3.20
2019-03-26T01:15:07.631Z,3.20
2019-03-26T01:17:52.950Z,3.10
2019-03-26T01:20:38.390Z,3.10
2019-03-26T01:23:23.373Z,3.00
2019-03-26T01:26:08.794Z,2.90
2019-03-26T01:28:53.828Z,2.80
2019-03-26T01:31:38.947Z,2.80
2019-03-26T01:34:23.835Z,2.80
2019-03-26T01:37:09.082Z,2.80
2019-03-26T01:39:54.501Z,2.80
2019-03-26T01:42:39.446Z,2.80
2019-03-26T01:45:24.962Z,2.90
2019-03-26T01:48:09.870Z,2.80
2019-03-26T01:50:54.936Z,2.80
2019-03-26T01:53:40.080Z,2.70
2019-03-26T01:56:25.638Z,2.60
2019-03-26T01:59:11.257Z,2.50
2019-03-26T02:01:56.130Z,2.40
2019-03-26T02:04:41.339Z,2.30
2019-03-26T02:07:26.447Z,2.20
2019-03-26T02:10:11.544Z,2.10
2019-03-26T02:12:56.881Z,2.00
2019-03-26T02:15:42.021Z,2.00
2019-03-26T02:18:27.054Z,2.10
2019-03-26T02:21:13.577Z,2.00
2019-03-26T02:23:58.702Z,2.00
2019-03-26T02:26:43.880Z,2.00
2019-03-26T02:29:28.842Z,2.10
2019-03-26T02:32:14.394Z,2.00
2019-03-26T02:35:16.292Z,2.00
2019-03-26T02:37:46.938Z,2.00
2019-03-26T02:40:32.256Z,1.90
2019-03-26T02:43:17.665Z,1.80
2019-03-26T02:46:02.791Z,1.80
2019-03-26T02:48:48.022Z,1.80
2019-03-26T02:51:33.239Z,1.80
2019-03-26T02:54:18.197Z,1.80
2019-03-26T02:57:03.294Z,1.80
2019-03-26T02:59:48.367Z,1.70
2019-03-26T03:02:33.511Z,1.60
2019-03-26T03:05:34.338Z,1.60
2019-03-26T03:08:05.894Z,1.70
2019-03-26T03:10:51.474Z,1.70
2019-03-26T03:13:36.575Z,1.60
2019-03-26T03:16:21.650Z,1.60
2019-03-26T03:19:06.859Z,1.60
2019-03-26T03:21:52.402Z,1.60
2019-03-26T03:24:37.973Z,1.50
2019-03-26T03:27:23.161Z,1.40
2019-03-26T03:30:08.331Z,1.30
2019-03-26T03:32:53.882Z,1.20
2019-03-26T03:35:51.417Z,1.10
2019-03-26T03:38:26.712Z,1.00
2019-03-26T03:41:12.167Z,0.90
2019-03-26T03:43:57.645Z,0.80
2019-03-26T03:46:42.766Z,0.70
2019-03-26T03:49:28.442Z,0.70
2019-03-26T03:52:14.147Z,0.60
2019-03-26T03:54:59.251Z,0.60
2019-03-26T03:57:44.274Z,0.60
2019-03-26T04:00:33.409Z,0.50
2019-03-26T04:03:18.738Z,0.40
2019-03-26T04:06:09.370Z,0.40
2019-03-26T04:08:51.859Z,0.30
2019-03-26T04:11:37.523Z,0.20
2019-03-26T04:14:22.985Z,0.20
2019-03-26T04:17:08.451Z,0.10
2019-03-26T04:19:53.737Z,0.10
2019-03-26T04:22:38.626Z,0.20
2019-03-26T04:25:23.697Z,0.30
2019-03-26T04:28:09.238Z,0.30
2019-03-26T04:30:54.274Z,0.30
2019-03-26T04:33:39.499Z,0.30
2019-03-26T04:36:26.316Z,0.30
2019-03-26T04:39:11.602Z,0.20
2019-03-26T04:41:56.750Z,0.20
2019-03-26T04:44:41.711Z,0.10
2019-03-26T04:47:27.103Z,0.10
2019-03-26T04:50:12.118Z,0.10
2019-03-26T04:52:57.387Z,0.10
2019-03-26T04:55:42.495Z,0.00
2019-03-26T04:58:27.895Z,-0.10
2019-03-26T05:01:13.189Z,-0.10
2019-03-26T05:03:58.560Z,-0.10
2019-03-26T05:06:43.554Z,-0.10
2019-03-26T05:09:28.646Z,-0.10
2019-03-26T05:12:14.176Z,-0.10
2019-03-26T05:15:00.361Z,0.00
2019-03-26T05:17:45.199Z,0.10
2019-03-26T05:20:30.442Z,0.20
2019-03-26T05:23:15.462Z,0.40
2019-03-26T05:26:00.890Z,0.50
2019-03-26T05:28:45.847Z,0.50
2019-03-26T05:31:30.986Z,0.60
2019-03-26T05:34:15.932Z,0.60
2019-03-26T05:37:01.390Z,0.70
2019-03-26T05:39:46.490Z,0.80
2019-03-26T05:42:31.810Z,0.80
2019-03-26T05:45:17.050Z,0.90
2019-03-26T05:48:02.174Z,0.90
2019-03-26T05:50:47.544Z,1.00
2019-03-26T05:53:32.838Z,1.00
2019-03-26T05:56:17.974Z,1.00
2019-03-26T05:59:03.172Z,1.10
2019-03-26T06:01:48.087Z,1.20
2019-03-26T06:04:33.786Z,1.20
2019-03-26T06:07:19.402Z,1.30
2019-03-26T06:10:05.605Z,1.40
2019-03-26T06:12:50.732Z,1.50
2019-03-26T06:15:36.322Z,1.60
2019-03-26T06:18:21.514Z,1.70
2019-03-26T06:21:06.754Z,1.80
2019-03-26T06:23:53.725Z,1.80
2019-03-26T06:26:39.191Z,2.00
2019-03-26T06:29:24.253Z,2.10
2019-03-26T06:32:09.146Z,2.20
2019-03-26T06:34:54.499Z,2.30
2019-03-26T06:37:39.401Z,2.40
2019-03-26T06:40:24.651Z,2.40
2019-03-26T06:43:09.950Z,2.70
2019-03-26T06:45:54.958Z,2.70
2019-03-26T06:48:40.067Z,2.60
2019-03-26T06:51:25.319Z,2.70
2019-03-26T06:54:10.446Z,2.90
2019-03-26T06:56:55.374Z,2.90
2019-03-26T06:59:40.838Z,3.00
2019-03-26T08:15:49.910Z,4.60
2019-03-26T08:18:36.049Z,4.40
2019-03-26T08:21:21.831Z,4.50
2019-03-26T08:24:07.199Z,4.30
2019-03-26T08:26:53.386Z,4.30
2019-03-26T08:29:38.966Z,4.40
2019-03-26T08:32:24.233Z,5.20
2019-03-26T08:35:10.013Z,6.50
2019-03-26T08:37:55.417Z,6.90
2019-03-26T08:40:41.418Z,7.20
2019-03-26T08:43:27.146Z,7.00
2019-03-26T08:46:13.129Z,6.70
2019-03-26T08:48:58.907Z,6.40
2019-03-26T08:51:44.590Z,6.00
2019-03-26T08:54:30.062Z,5.50
2019-03-26T08:57:15.114Z,5.60
2019-03-26T09:00:00.544Z,5.50
2019-03-26T09:02:45.892Z,5.50
2019-03-26T09:05:31.550Z,5.50
2019-03-26T09:08:25.203Z,6.00
2019-03-26T09:11:04.546Z,6.80
2019-03-26T09:13:50.526Z,6.90
2019-03-26T09:16:35.690Z,7.80
2019-03-26T09:19:21.370Z,8.10
2019-03-26T09:22:07.359Z,8.90
2019-03-26T09:24:53.135Z,9.50
2019-03-26T09:27:38.710Z,10.80
2019-03-26T09:30:23.966Z,10.40
2019-03-26T09:33:09.862Z,9.70
2019-03-26T09:35:55.256Z,8.90
2019-03-26T09:38:41.218Z,8.60
2019-03-26T09:41:26.904Z,8.20
2019-03-26T09:44:12.816Z,8.10
2019-03-26T09:46:58.158Z,7.90
2019-03-26T09:49:43.899Z,7.70
2019-03-26T09:52:28.951Z,7.60
2019-03-26T09:55:14.401Z,7.40
2019-03-26T09:57:59.973Z,7.00
2019-03-26T10:00:46.005Z,6.40
2019-03-26T10:03:31.943Z,6.20
2019-03-26T10:06:23.276Z,5.90
2019-03-26T10:09:05.930Z,5.80
2019-03-26T10:11:51.398Z,5.70
2019-03-26T10:14:36.655Z,5.70
2019-03-26T10:17:22.084Z,5.90
2019-03-26T10:20:07.910Z,6.10
2019-03-26T10:22:53.709Z,6.40
2019-03-26T10:25:39.329Z,7.30
2019-03-26T10:28:24.857Z,7.50
2019-03-26T10:31:11.150Z,7.50
2019-03-26T10:33:57.036Z,7.60
2019-03-26T10:36:42.610Z,7.60
2019-03-26T10:39:27.722Z,8.10
2019-03-26T10:42:13.074Z,8.70
2019-03-26T10:44:58.826Z,8.50
2019-03-26T10:47:44.502Z,7.90
2019-03-26T10:50:30.179Z,8.60
2019-03-26T10:53:15.378Z,8.20
2019-03-26T10:56:01.334Z,8.20
2019-03-26T10:58:47.121Z,9.90
2019-03-26T11:01:32.615Z,12.80
2019-03-26T11:04:17.965Z,12.30
2019-03-26T11:07:03.743Z,11.40
2019-03-26T11:09:48.907Z,10.80
2019-03-26T11:12:34.335Z,10.30
2019-03-26T11:15:20.466Z,9.90
2019-03-26T11:18:06.058Z,9.60
2019-03-26T11:21:01.700Z,9.40
2019-03-26T11:23:38.686Z,9.70
2019-03-26T11:26:24.070Z,9.70
2019-03-26T11:29:10.230Z,10.10
2019-03-26T11:31:55.767Z,9.60
2019-03-26T11:34:41.262Z,9.30
2019-03-26T11:37:26.918Z,9.30
2019-03-26T11:40:12.840Z,9.30
2019-03-26T11:42:58.434Z,9.00
2019-03-26T11:45:44.098Z,8.60
2019-03-26T11:48:29.934Z,8.60
2019-03-26T11:51:15.610Z,9.10
2019-03-26T11:54:01.014Z,9.10
2019-03-26T11:56:46.863Z,9.00
2019-03-26T11:59:32.140Z,8.80
2019-03-26T12:02:17.716Z,8.80
2019-03-26T12:05:03.434Z,9.00
2019-03-26T12:07:48.853Z,8.70
2019-03-26T12:10:34.559Z,8.50
2019-03-26T12:13:20.247Z,8.30
2019-03-26T12:16:05.862Z,8.10
2019-03-26T12:18:51.269Z,8.10
2019-03-26T12:21:36.738Z,8.20
2019-03-26T12:24:22.935Z,8.20
2019-03-26T12:27:08.342Z,8.00
2019-03-26T12:29:53.718Z,8.00
2019-03-26T12:32:40.930Z,8.40
2019-03-26T12:35:26.775Z,8.60
2019-03-26T12:38:16.254Z,8.60
2019-03-26T12:41:01.546Z,8.90
2019-03-26T12:43:47.217Z,8.70
2019-03-26T12:46:32.654Z,8.30
2019-03-26T12:49:18.535Z,8.10
2019-03-26T12:52:04.005Z,8.00
2019-03-26T12:54:50.095Z,7.70
2019-03-26T12:57:35.463Z,7.60
2019-03-26T13:00:23.071Z,7.40
2019-03-26T13:03:08.667Z,7.40
2019-03-26T13:05:54.462Z,7.30
2019-03-26T13:08:39.566Z,7.30
2019-03-26T13:11:25.444Z,7.30
2019-03-26T13:14:10.734Z,7.30
2019-03-26T13:16:56.231Z,7.20
2019-03-26T13:19:41.841Z,7.20
2019-03-26T13:22:27.338Z,7.20
2019-03-26T13:25:13.270Z,7.30
2019-03-26T13:27:58.810Z,7.40
2019-03-26T13:30:44.846Z,7.30
2019-03-26T13:33:30.714Z,7.30
2019-03-26T13:36:16.493Z,7.30
2019-03-26T13:39:02.040Z,7.20
2019-03-26T13:41:47.646Z,7.10
2019-03-26T13:44:33.777Z,7.20
2019-03-26T13:47:18.962Z,7.70
2019-03-26T13:50:04.787Z,8.00
2019-03-26T13:52:50.978Z,8.10
2019-03-26T13:55:36.243Z,8.30
2019-03-26T13:58:22.126Z,8.40
2019-03-26T14:01:08.218Z,8.30
2019-03-26T14:03:53.478Z,8.00
2019-03-26T14:06:39.264Z,8.20
2019-03-26T14:09:24.486Z,8.50
2019-03-26T14:12:10.311Z,8.40
2019-03-26T14:14:56.303Z,8.20
2019-03-26T14:17:41.666Z,8.20
2019-03-26T14:20:27.142Z,8.10
2019-03-26T14:23:12.263Z,7.80
2019-03-26T14:25:58.206Z,7.90
2019-03-26T14:28:43.746Z,7.90
2019-03-26T14:31:29.549Z,7.80
2019-03-26T14:34:15.371Z,7.60
2019-03-26T14:37:01.210Z,7.50
2019-03-26T14:39:47.403Z,7.30
2019-03-26T14:42:32.484Z,7.30
2019-03-26T14:45:17.898Z,7.20
2019-03-26T14:48:03.352Z,7.10
2019-03-26T14:50:48.644Z,6.90
2019-03-26T14:53:34.463Z,6.70
2019-03-26T14:56:19.830Z,6.60
2019-03-26T14:59:05.434Z,6.50
2019-03-26T15:01:51.086Z,6.40
2019-03-26T15:04:37.077Z,6.40
2019-03-26T15:07:22.501Z,6.30
2019-03-26T15:10:07.840Z,6.20
2019-03-26T15:12:53.707Z,6.20
2019-03-26T15:15:39.166Z,6.10
2019-03-26T15:18:24.538Z,6.20
2019-03-26T15:21:10.083Z,6.20
2019-03-26T15:23:55.390Z,6.20
2019-03-26T15:26:41.777Z,6.20
2019-03-26T15:29:27.603Z,6.20
2019-03-26T15:32:13.082Z,6.20
2019-03-26T15:34:58.943Z,6.20
2019-03-26T15:37:43.947Z,6.20
2019-03-26T15:40:29.347Z,6.20
2019-03-26T15:43:15.391Z,6.20
2019-03-26T15:46:00.712Z,6.10
2019-03-26T15:48:46.291Z,6.10
2019-03-26T15:51:31.821Z,6.10
2019-03-26T15:54:17.574Z,6.10
2019-03-26T15:57:03.089Z,6.10
2019-03-26T15:59:48.685Z,6.00
2019-03-26T16:02:34.268Z,6.00
2019-03-26T16:05:20.145Z,5.90
2019-03-26T16:08:05.952Z,5.90
2019-03-26T16:10:51.707Z,5.90
2019-03-26T16:13:37.194Z,5.90
2019-03-26T16:16:22.858Z,5.90
2019-03-26T16:19:08.645Z,5.90
2019-03-26T16:21:54.010Z,5.80
2019-03-26T16:24:39.146Z,5.80
2019-03-26T16:27:24.958Z,5.80
2019-03-26T16:30:10.314Z,5.90
2019-03-26T16:32:55.533Z,6.00
2019-03-26T16:35:41.115Z,6.00
2019-03-26T16:38:27.158Z,6.00
2019-03-26T16:41:12.306Z,6.00
2019-03-26T16:43:58.118Z,6.00
2019-03-26T16:46:43.885Z,6.00
2019-03-26T16:49:29.112Z,6.00
2019-03-26T16:52:14.730Z,5.90
2019-03-26T16:54:59.973Z,5.90
2019-03-26T16:57:45.639Z,5.80
2019-03-26T17:00:31.684Z,5.80
2019-03-26T17:03:30.361Z,5.80
2019-03-26T17:06:04.841Z,5.90
2019-03-26T17:08:50.539Z,5.80
2019-03-26T17:11:36.225Z,5.80
2019-03-26T17:14:21.900Z,5.80
2019-03-26T17:17:07.318Z,5.90
2019-03-26T17:19:52.750Z,5.90
2019-03-26T17:22:37.902Z,5.90
2019-03-26T17:25:23.790Z,5.80
2019-03-26T17:28:09.162Z,5.90
2019-03-26T17:30:54.534Z,5.90
2019-03-26T17:33:39.905Z,5.80
2019-03-26T17:36:25.599Z,5.80
2019-03-26T17:39:10.855Z,5.80
2019-03-26T17:41:56.428Z,5.80
2019-03-26T17:44:41.665Z,5.80
2019-03-26T17:47:27.579Z,5.80
2019-03-26T17:50:12.959Z,5.80
2019-03-26T17:52:58.366Z,5.80
2019-03-26T17:55:43.710Z,5.80
2019-03-26T17:58:29.577Z,5.70
2019-03-26T18:01:15.355Z,5.70
2019-03-26T18:04:00.658Z,5.70
2019-03-26T18:06:46.094Z,5.70
2019-03-26T18:09:31.830Z,5.70
2019-03-26T18:12:29.935Z,5.70
2019-03-26T18:15:04.974Z,5.70
2019-03-26T18:17:50.552Z,5.60
2019-03-26T18:20:36.330Z,5.60
2019-03-26T18:23:21.470Z,5.60
2019-03-26T18:26:06.947Z,5.60
2019-03-26T18:28:55.347Z,5.60
2019-03-26T18:31:39.888Z,5.60
2019-03-26T18:34:25.337Z,5.60
2019-03-26T18:37:10.706Z,5.60
2019-03-26T18:39:56.026Z,5.60
2019-03-26T18:42:44.183Z,5.50
2019-03-26T18:45:28.971Z,5.50
2019-03-26T18:48:15.158Z,5.50
2019-03-26T18:51:01.345Z,5.50
2019-03-26T18:53:47.127Z,5.50
2019-03-26T18:56:32.731Z,5.40
2019-03-26T18:59:18.033Z,5.40
2019-03-26T19:02:03.318Z,5.40
2019-03-26T19:04:49.023Z,5.40
2019-03-26T19:07:34.843Z,5.40
2019-03-26T19:10:24.471Z,5.30
2019-03-26T19:13:19.358Z,5.30
2019-03-26T19:15:57.575Z,5.30
2019-03-26T19:18:42.882Z,5.30
2019-03-26T19:21:28.514Z,5.30
2019-03-26T19:24:13.719Z,5.40
2019-03-26T19:26:59.165Z,5.40
2019-03-26T19:29:45.343Z,5.40
2019-03-26T19:32:31.325Z,5.40
2019-03-26T19:35:16.578Z,5.40
2019-03-26T19:38:02.047Z,5.40
2019-03-26T19:40:47.470Z,5.40
2019-03-26T19:43:33.027Z,5.50
2019-03-26T19:46:18.116Z,5.50
2019-03-26T19:49:03.514Z,5.40
2019-03-26T19:51:49.018Z,5.40
2019-03-26T19:54:34.909Z,5.40
2019-03-26T19:57:20.596Z,5.40
2019-03-26T20:00:06.526Z,5.40
2019-03-26T20:02:51.974Z,5.40
2019-03-26T20:05:37.527Z,5.40
2019-03-26T20:08:23.093Z,5.40
2019-03-26T20:11:08.779Z,5.40
2019-03-26T20:13:54.088Z,5.40
2019-03-26T20:16:42.001Z,5.50
2019-03-26T20:19:27.755Z,5.50
2019-03-26T20:22:13.079Z,5.50
2019-03-26T20:24:58.430Z,5.50
2019-03-26T20:27:43.746Z,5.50
2019-03-26T20:30:29.653Z,5.40
2019-03-26T20:33:15.639Z,5.50
2019-03-26T20:36:01.314Z,5.40
2019-03-26T20:38:46.682Z,5.40
2019-03-26T20:41:31.950Z,5.40
2019-03-26T20:44:17.121Z,5.30
2019-03-26T20:47:02.751Z,5.40
2019-03-26T20:49:48.206Z,5.40
2019-03-26T20:52:33.539Z,5.30
2019-03-26T20:55:28.013Z,5.30
2019-03-26T20:58:13.586Z,5.20
2019-03-26T21:00:59.375Z,5.20
2019-03-26T21:03:45.155Z,5.30
2019-03-26T21:06:30.350Z,5.20
2019-03-26T21:09:16.202Z,5.30
2019-03-26T21:12:01.746Z,5.20
2019-03-26T21:14:47.670Z,5.20
2019-03-26T21:17:33.293Z,5.20
2019-03-26T21:20:19.123Z,5.20
2019-03-26T21:23:04.797Z,5.20
2019-03-26T21:25:50.118Z,5.20
2019-03-26T21:28:35.602Z,5.20
2019-03-26T21:31:20.928Z,5.20
2019-03-26T21:34:06.312Z,5.30
2019-03-26T21:36:51.753Z,5.30
2019-03-26T21:39:36.806Z,5.40
2019-03-26T21:42:22.498Z,5.30
2019-03-26T21:45:08.893Z,5.30
2019-03-26T21:47:54.262Z,5.40
2019-03-26T21:50:39.594Z,5.30
2019-03-26T21:53:24.925Z,5.30
2019-03-26T21:56:10.791Z,5.30
2019-03-26T21:58:56.262Z,5.40
2019-03-26T22:01:42.247Z,5.30
2019-03-26T22:04:27.503Z,5.30
2019-03-26T22:07:13.138Z,5.30
2019-03-26T22:09:58.562Z,5.30
2019-03-26T22:12:44.450Z,5.30
2019-03-26T22:15:30.125Z,5.30
2019-03-26T22:18:15.844Z,5.30
2019-03-26T22:21:01.994Z,5.20
2019-03-26T22:23:47.306Z,5.20
2019-03-26T22:26:33.041Z,5.20
2019-03-26T22:29:19.234Z,5.20
2019-03-26T22:32:04.825Z,5.10
2019-03-26T22:34:50.430Z,5.10
2019-03-26T22:37:36.573Z,5.20
2019-03-26T22:40:22.046Z,5.10
2019-03-26T22:43:07.518Z,5.20
2019-03-26T22:45:52.928Z,5.20
2019-03-26T22:48:38.466Z,5.20
2019-03-26T22:51:23.938Z,5.10
2019-03-26T22:54:09.748Z,5.10
2019-03-26T22:56:55.502Z,5.10
2019-03-26T22:59:40.971Z,5.10
2019-03-26T23:02:26.758Z,5.00
2019-03-26T23:05:12.618Z,5.00
2019-03-26T23:07:58.051Z,5.00
2019-03-26T23:10:43.633Z,4.90
2019-03-26T23:13:29.572Z,4.90
2019-03-26T23:16:15.451Z,4.80
2019-03-26T23:19:00.694Z,4.90
2019-03-26T23:21:46.413Z,4.90
2019-03-26T23:24:32.022Z,4.80
2019-03-26T23:27:17.550Z,4.80
2019-03-26T23:30:03.021Z,4.90
2019-03-26T23:32:49.008Z,4.80
2019-03-26T23:35:34.596Z,4.80
2019-03-26T23:38:20.466Z,4.80
2019-03-26T23:41:05.838Z,4.80
2019-03-26T23:43:51.310Z,4.80
2019-03-26T23:46:36.887Z,4.80
2019-03-26T23:49:22.875Z,4.80
2019-03-26T23:52:08.350Z,4.80
2019-03-26T23:54:53.618Z,4.80
2019-03-26T23:57:38.853Z,4.90
